TWF weather

Joslin Field Magic Valley Regional Airport
Twin Falls, Idaho, United States

Public forecast

Using degrees Fahrenheit for public forecast. Weather courtesy of forecast.io.

Current aviation weather report (METAR) for Joslin Field Magic Valley Regional Airport

Retrieved 2020/06/04 03:53 UTC (1 hour ago):

KTWF 040353Z AUTO 26008KT 10SM CLR 20/07 A2997 RMK AO2 SLP097 T02000072

Aviation forecast (TAF) for Joslin Field Magic Valley Regional Airport

Retrieved 2020-06-04 00:40 UTC (4 hours ago):

TAF KTWF 032338Z 0400/0424 29012G20KT P6SM BKN200 FM040200 19010KT P6SM SCT200 FM041400 25015G22KT P6SM BKN200 FM041800 29015G24KT P6SM BKN200